Accueil
METAR-TAF:

METAR-TAF

Aéroports :

Aéroport international de Phuket

Phuket, Thaïlande

latitude: 08-07N, longitude: 098-19E, altitude: 6 m

Observation

Le bulletin a été fait il y a 50 minutes, à 17:00 UTC
Vent 3 kt de sud/sud-est, variant entre nord-est et sud/sud-ouest
Température 25°C
Humidité 79%
Pression 1013 hPa
Visibilité 10 km ou plus
Quelques nuages à une hauteur de 2000 ft
pluie faible

METAR: VTSP 101700Z 15003KT 050V200 9999 -RA FEW020 25/21 Q1013 NOSIG

Heure: 00:50 (17:50 UTC)

Prévision

Le bulletin a été fait il y a 50 minutes, à 17:00 UTC
Prévision valable du 10 à 18 UTC au 11 à 24 UTC
Vent kt de nord
Visibilité 10 km ou plus
Quelques nuages à une hauteur de 2000 ft
Evoluant progressivement
du 11 à 00 UTC au 11 à 02 UTC
Vent 8 kt de est
Evoluant progressivement
du 11 à 08 UTC au 11 à 10 UTC
Vent 10 kt de ouest/nord-ouest

TAF: VTSP 101700Z 1018/1124 00000KT 9999 FEW020 BECMG 1100/1102 09008KT BECMG 1108/1110 30010KT

Observations et prévisions météorologiques de plus de 4000 aéroports (messages METAR et TAF).

Les stations disponibles sont représentées par des disques jaunes et rouges sur la carte.

Passer la souris dessus pour voir le nom de la station.

Cliquer dessus pour voir les observations et prévisions météorologiques.

Pour changer de carte: cliquez sur les boutons verts avec une croix noire pour zoomer, sur le bouton vert avec un tiret pour effectuer un zoom arrière, ou sur les flèches vertes pour les cartes adjacentes.


METAR-TAF: